Time;durP1;ratioP1;P1;durP2;ratioP2;P2;SDS_P1;SDS_P2;PMS_P1;PMS_P2;Temp;Humidity;BMP_temperature;BMP_pressure;BME280_temperature;BME280_humidity;BME280_pressure;Samples;Min_cycle;Max_cycle;Signal;HPM_P1;HPM_P2
2021/08/28 00:01:23;;;;;;;12.50;6.90;;;;;;;;;;5096083;28;20507;-49
2021/08/28 00:03:50;;;;;;;13.77;6.20;;;;;;;;;;5096033;28;20490;-54
2021/08/28 00:06:17;;;;;;;8.90;5.73;;;;;;;;;;5096102;28;20456;-57
2021/08/28 00:08:47;;;;;;;13.03;6.50;;;;;;;;;;5100060;28;20447;-58
2021/08/28 00:11:17;;;;;;;11.37;6.00;;;;;;;;;;5103459;28;20462;-55
2021/08/28 00:13:49;;;;;;;16.70;7.67;;;;;;;;;;5115986;28;20481;-47
2021/08/28 00:16:16;;;;;;;26.67;15.13;;;;;;;;;;5116540;28;20447;-48
2021/08/28 00:18:43;;;;;;;15.73;6.50;;;;;;;;;;5116163;28;20536;-51
2021/08/28 00:21:11;;;;;;;12.17;5.93;;;;;;;;;;5116432;28;20464;-56
2021/08/28 00:23:38;;;;;;;8.67;5.30;;;;;;;;;;5116118;28;20435;-53
2021/08/28 00:26:09;;;;;;;10.20;5.37;;;;;;;;;;5116527;28;20462;-53
2021/08/28 00:28:37;;;;;;;15.30;5.40;;;;;;;;;;5118349;28;20623;-57
2021/08/28 00:31:04;;;;;;;13.50;5.90;;;;;;;;;;5120374;28;20439;-52
2021/08/28 00:33:41;;;;;;;15.23;5.17;;;;;;;;;;5120705;28;20473;-50
2021/08/28 00:36:08;;;;;;;10.07;5.60;;;;;;;;;;5118527;28;20501;-56
2021/08/28 00:38:35;;;;;;;10.57;5.33;;;;;;;;;;5120320;28;20501;-54
2021/08/28 00:41:02;;;;;;;12.10;5.20;;;;;;;;;;5120756;28;20512;-53
2021/08/28 00:43:33;;;;;;;7.23;4.40;;;;;;;;;;5120676;28;20438;-52
2021/08/28 00:46:10;;;;;;;14.30;6.60;;;;;;;;;;5120594;28;20435;-46
2021/08/28 00:48:37;;;;;;;12.10;6.40;;;;;;;;;;5100701;28;20444;-53
2021/08/28 00:51:05;;;;;;;11.07;6.10;;;;;;;;;;5100132;28;20662;-50
2021/08/28 00:53:33;;;;;;;10.00;6.10;;;;;;;;;;5100352;28;20456;-59
2021/08/28 00:56:00;;;;;;;17.23;6.20;;;;;;;;;;5100558;28;20440;-51
2021/08/28 00:58:27;;;;;;;11.13;7.23;;;;;;;;;;5100159;28;20436;-50
2021/08/28 01:01:01;;;;;;;12.10;6.70;;;;;;;;;;5100140;28;20456;-54
2021/08/28 01:03:30;;;;;;;15.37;6.87;;;;;;;;;;5101298;28;20448;-56
2021/08/28 01:06:00;;;;;;;10.77;5.70;;;;;;;;;;5120102;28;20443;-56
2021/08/28 01:08:38;;;;;;;12.10;7.40;;;;;;;;;;5119203;28;20443;-47
2021/08/28 01:11:12;;;;;;;11.90;6.87;;;;;;;;;;5119859;28;20455;-56
2021/08/28 01:13:41;;;;;;;39.27;8.20;;;;;;;;;;5120455;28;20431;-54
2021/08/28 01:16:12;;;;;;;13.47;7.30;;;;;;;;;;5119661;28;20451;-54
2021/08/28 01:18:47;;;;;;;19.73;8.83;;;;;;;;;;5119500;28;20543;-57
2021/08/28 01:21:18;;;;;;;15.70;7.57;;;;;;;;;;5120053;28;20493;-51
2021/08/28 01:23:45;;;;;;;16.77;7.80;;;;;;;;;;5119469;28;20443;-51
2021/08/28 01:31:47;;;;;;;13.73;8.70;;;;;;;;;;5119297;28;20479;-52
2021/08/28 01:34:15;;;;;;;12.73;7.30;;;;;;;;;;5119122;28;20209;-52
2021/08/28 01:36:43;;;;;;;15.30;8.30;;;;;;;;;;5120190;28;20431;-54
2021/08/28 01:39:11;;;;;;;12.40;8.40;;;;;;;;;;5119485;28;20474;-52
2021/08/28 01:41:39;;;;;;;14.17;8.40;;;;;;;;;;5118969;28;20439;-56
2021/08/28 01:44:08;;;;;;;17.10;9.13;;;;;;;;;;5119521;28;20455;-54
2021/08/28 01:46:36;;;;;;;15.83;10.03;;;;;;;;;;5119724;28;20459;-48
2021/08/28 01:49:06;;;;;;;19.73;11.23;;;;;;;;;;5119858;28;20455;-52
2021/08/28 01:51:34;;;;;;;13.87;9.53;;;;;;;;;;5119412;28;20651;-53
2021/08/28 01:54:01;;;;;;;21.37;11.67;;;;;;;;;;5119518;28;20430;-51
2021/08/28 01:56:29;;;;;;;18.93;13.23;;;;;;;;;;5119547;28;20469;-47
2021/08/28 01:59:00;;;;;;;25.03;14.70;;;;;;;;;;5118947;28;20487;-53
2021/08/28 02:01:30;;;;;;;20.83;15.73;;;;;;;;;;5118839;28;20471;-56
2021/08/28 02:03:57;;;;;;;22.00;15.30;;;;;;;;;;5119249;28;20459;-50
2021/08/28 02:06:29;;;;;;;21.77;15.23;;;;;;;;;;5119642;28;20465;-56
2021/08/28 02:09:02;;;;;;;23.30;16.90;;;;;;;;;;5119029;28;20482;-53
2021/08/28 02:11:33;;;;;;;23.70;16.33;;;;;;;;;;5109804;28;20448;-55
2021/08/28 02:14:03;;;;;;;23.73;15.43;;;;;;;;;;5098524;28;20451;-53
2021/08/28 02:16:46;;;;;;;20.70;15.00;;;;;;;;;;5098682;28;20439;-55
2021/08/28 02:19:16;;;;;;;25.20;15.50;;;;;;;;;;5110596;28;20928;-51
2021/08/28 02:21:46;;;;;;;18.60;14.20;;;;;;;;;;5118238;28;20463;-54
2021/08/28 02:24:17;;;;;;;23.00;14.20;;;;;;;;;;5118889;28;20444;-49
2021/08/28 02:26:47;;;;;;;17.70;12.23;;;;;;;;;;5118855;28;20423;-53
2021/08/28 02:29:19;;;;;;;19.30;11.20;;;;;;;;;;5118689;28;20523;-54
2021/08/28 02:31:49;;;;;;;22.20;12.43;;;;;;;;;;5137838;28;20434;-51
2021/08/28 02:34:18;;;;;;;28.77;12.43;;;;;;;;;;5104086;28;20491;-53
2021/08/28 02:37:05;;;;;;;15.43;10.00;;;;;;;;;;5108613;28;20459;-49
2021/08/28 02:39:35;;;;;;;19.63;11.33;;;;;;;;;;5116979;28;20487;-54
2021/08/28 02:42:03;;;;;;;20.23;12.60;;;;;;;;;;5118670;28;20478;-53
2021/08/28 02:47:34;;;;;;;17.00;12.73;;;;;;;;;;5116523;28;20485;-51
2021/08/28 02:50:02;;;;;;;22.40;13.73;;;;;;;;;;5118970;28;20473;-60
2021/08/28 02:52:30;;;;;;;21.00;15.90;;;;;;;;;;5117363;28;20443;-50
2021/08/28 02:55:01;;;;;;;21.83;15.70;;;;;;;;;;5118033;28;20489;-49
2021/08/28 02:57:45;;;;;;;26.13;15.43;;;;;;;;;;5118346;28;20441;-50
2021/08/28 03:00:14;;;;;;;23.50;14.20;;;;;;;;;;5118341;28;20490;-53
2021/08/28 03:02:42;;;;;;;22.97;15.00;;;;;;;;;;5117985;28;20443;-51
2021/08/28 03:05:12;;;;;;;28.67;15.17;;;;;;;;;;5117366;28;20447;-48
2021/08/28 03:07:44;;;;;;;23.73;16.10;;;;;;;;;;5118065;28;20465;-53
2021/08/28 03:10:24;;;;;;;23.03;17.00;;;;;;;;;;5118374;28;20450;-55
2021/08/28 03:13:03;;;;;;;24.20;15.30;;;;;;;;;;5117839;28;20439;-54
2021/08/28 03:15:35;;;;;;;22.77;14.50;;;;;;;;;;5118140;28;20420;-54
2021/08/28 03:18:03;;;;;;;29.37;13.83;;;;;;;;;;5117783;28;20443;-46
2021/08/28 03:20:30;;;;;;;27.37;15.00;;;;;;;;;;5118049;28;20475;-54
2021/08/28 03:22:57;;;;;;;27.80;15.07;;;;;;;;;;5117265;28;20446;-53
2021/08/28 03:25:27;;;;;;;22.57;14.73;;;;;;;;;;5118370;28;20489;-57
2021/08/28 03:27:59;;;;;;;22.20;15.50;;;;;;;;;;5104469;28;20486;-52
2021/08/28 03:30:27;;;;;;;24.20;18.03;;;;;;;;;;5097387;28;20522;-51
2021/08/28 03:33:05;;;;;;;26.13;17.70;;;;;;;;;;5097066;28;20461;-56
2021/08/28 03:35:33;;;;;;;29.10;18.40;;;;;;;;;;5097194;28;20450;-54
2021/08/28 03:38:02;;;;;;;30.50;19.87;;;;;;;;;;5112016;28;20443;-52
2021/08/28 03:40:45;;;;;;;34.20;21.13;;;;;;;;;;5117095;28;20491;-44
2021/08/28 03:43:12;;;;;;;37.83;21.07;;;;;;;;;;5115406;28;20487;-55
2021/08/28 03:45:40;;;;;;;40.60;25.07;;;;;;;;;;5117818;28;20443;-52
2021/08/28 03:48:09;;;;;;;38.80;23.60;;;;;;;;;;5116676;28;20443;-57
2021/08/28 03:50:36;;;;;;;45.47;23.43;;;;;;;;;;5100828;28;20455;-55
2021/08/28 03:53:25;;;;;;;46.07;27.03;;;;;;;;;;5114426;28;20440;-56
2021/08/28 03:55:56;;;;;;;40.80;23.50;;;;;;;;;;5111812;28;20444;-58
2021/08/28 03:58:23;;;;;;;39.10;23.30;;;;;;;;;;5099405;28;20466;-52
2021/08/28 04:00:51;;;;;;;42.00;27.17;;;;;;;;;;5105099;28;20543;-50
2021/08/28 04:03:19;;;;;;;42.17;27.37;;;;;;;;;;5099072;28;20440;-52
2021/08/28 04:05:51;;;;;;;35.90;24.30;;;;;;;;;;5098766;28;20478;-52
2021/08/28 04:08:35;;;;;;;37.90;24.67;;;;;;;;;;5096802;28;20413;-58
2021/08/28 04:11:04;;;;;;;42.67;25.77;;;;;;;;;;5096329;28;20459;-55
2021/08/28 04:13:31;;;;;;;37.27;24.40;;;;;;;;;;5096589;28;20440;-58
2021/08/28 04:15:58;;;;;;;48.60;27.57;;;;;;;;;;5102560;28;20442;-57
2021/08/28 04:18:26;;;;;;;39.37;25.90;;;;;;;;;;5117181;28;20451;-47
2021/08/28 04:20:59;;;;;;;42.50;23.43;;;;;;;;;;5114493;28;20485;-55
2021/08/28 04:23:27;;;;;;;39.80;26.60;;;;;;;;;;5099804;28;20459;-52
2021/08/28 04:26:12;;;;;;;40.80;25.10;;;;;;;;;;5096554;28;20448;-58
2021/08/28 04:28:39;;;;;;;39.40;27.17;;;;;;;;;;5096513;28;20452;-55
2021/08/28 04:31:06;;;;;;;45.50;29.20;;;;;;;;;;5096377;28;20494;-54
2021/08/28 04:33:34;;;;;;;45.37;26.70;;;;;;;;;;5097806;28;20452;-56
2021/08/28 04:36:01;;;;;;;54.20;29.17;;;;;;;;;;5116344;28;20484;-55
2021/08/28 04:38:35;;;;;;;50.50;28.00;;;;;;;;;;5099015;28;20452;-55
2021/08/28 04:41:02;;;;;;;43.70;28.30;;;;;;;;;;5096316;28;20480;-51
2021/08/28 04:43:31;;;;;;;43.43;28.80;;;;;;;;;;5104690;28;20492;-56
2021/08/28 04:45:58;;;;;;;55.80;33.53;;;;;;;;;;5108994;28;20447;-58
2021/08/28 04:48:27;;;;;;;57.40;32.80;;;;;;;;;;5102772;28;20458;-52
2021/08/28 04:50:56;;;;;;;52.83;31.97;;;;;;;;;;5110137;28;20482;-57
2021/08/28 04:53:23;;;;;;;52.93;32.07;;;;;;;;;;5116278;28;20446;-56
2021/08/28 04:55:52;;;;;;;54.77;33.33;;;;;;;;;;5116469;28;20460;-55
2021/08/28 04:58:19;;;;;;;49.77;31.93;;;;;;;;;;5116831;28;20431;-57
2021/08/28 05:00:47;;;;;;;56.00;32.80;;;;;;;;;;5102312;28;20636;-54
2021/08/28 05:03:28;;;;;;;51.60;31.47;;;;;;;;;;5099341;28;20447;-58
2021/08/28 05:05:56;;;;;;;56.53;32.00;;;;;;;;;;5112671;28;20471;-52
2021/08/28 05:08:23;;;;;;;50.13;31.60;;;;;;;;;;5115013;28;20455;-54
2021/08/28 05:13:54;;;;;;;52.07;30.33;;;;;;;;;;5109676;28;20410;-51
2021/08/28 05:16:23;;;;;;;42.90;32.00;;;;;;;;;;5099105;28;20462;-56
2021/08/28 05:18:57;;;;;;;47.43;29.63;;;;;;;;;;5099528;28;20432;-56
2021/08/28 05:21:24;;;;;;;49.40;28.93;;;;;;;;;;5113188;28;20506;-53
2021/08/28 05:23:51;;;;;;;45.83;29.10;;;;;;;;;;5108493;28;20468;-58
2021/08/28 05:26:18;;;;;;;42.77;28.57;;;;;;;;;;5102622;28;20443;-56
2021/08/28 05:28:46;;;;;;;39.67;28.30;;;;;;;;;;5101342;28;20450;-58
2021/08/28 05:31:38;;;;;;;41.20;26.27;;;;;;;;;;5102326;28;20792;-47
2021/08/28 05:34:06;;;;;;;41.53;28.13;;;;;;;;;;5101633;28;20462;-51
2021/08/28 05:36:35;;;;;;;42.90;26.30;;;;;;;;;;5119226;28;20456;-53
2021/08/28 05:39:18;;;;;;;30.80;22.37;;;;;;;;;;5119844;28;20522;-55
2021/08/28 05:41:45;;;;;;;36.53;24.43;;;;;;;;;;5102694;28;20492;-55
2021/08/28 05:44:12;;;;;;;31.50;21.20;;;;;;;;;;5098900;28;20460;-59
2021/08/28 05:46:40;;;;;;;25.63;20.70;;;;;;;;;;5115300;28;20465;-55
2021/08/28 05:49:09;;;;;;;25.17;19.10;;;;;;;;;;5119259;28;20431;-52
2021/08/28 05:51:36;;;;;;;30.13;21.00;;;;;;;;;;5119045;28;20443;-52
2021/08/28 05:54:10;;;;;;;20.83;15.80;;;;;;;;;;5119340;28;20454;-53
2021/08/28 05:56:37;;;;;;;21.30;16.00;;;;;;;;;;5118698;28;20500;-53
2021/08/28 05:59:06;;;;;;;25.80;15.83;;;;;;;;;;5107638;28;20451;-57
2021/08/28 06:01:52;;;;;;;20.53;17.13;;;;;;;;;;5119232;28;20463;-50
2021/08/28 06:04:20;;;;;;;22.20;15.33;;;;;;;;;;5119404;28;20459;-48
2021/08/28 06:06:48;;;;;;;19.83;15.27;;;;;;;;;;5115060;28;20456;-51
2021/08/28 06:09:27;;;;;;;23.93;14.60;;;;;;;;;;5103713;28;20467;-54
2021/08/28 06:11:58;;;;;;;19.63;14.27;;;;;;;;;;5098973;28;20474;-58
2021/08/28 06:14:26;;;;;;;14.63;12.20;;;;;;;;;;5101331;28;20531;-54
2021/08/28 06:16:57;;;;;;;16.50;13.83;;;;;;;;;;5101174;28;20416;-53
2021/08/28 06:19:26;;;;;;;15.00;11.07;;;;;;;;;;5115387;28;20462;-61
2021/08/28 06:21:53;;;;;;;15.73;11.27;;;;;;;;;;5115714;28;20494;-55
2021/08/28 06:24:49;;;;;;;13.67;10.47;;;;;;;;;;5116296;28;20447;-55
2021/08/28 06:27:17;;;;;;;13.37;10.67;;;;;;;;;;5103056;28;20464;-51
2021/08/28 06:29:49;;;;;;;18.80;11.17;;;;;;;;;;5098138;28;20443;-53
2021/08/28 06:32:19;;;;;;;12.13;9.10;;;;;;;;;;5106704;28;20470;-56
2021/08/28 06:34:50;;;;;;;12.00;8.57;;;;;;;;;;5118122;28;20482;-57
2021/08/28 06:37:53;;;;;;;15.63;9.63;;;;;;;;;;5118281;28;20453;-56
2021/08/28 06:40:23;;;;;;;11.63;8.50;;;;;;;;;;5116722;28;20479;-58
2021/08/28 06:42:50;;;;;;;8.30;7.50;;;;;;;;;;5117952;28;20451;-56
2021/08/28 06:45:33;;;;;;;10.40;8.70;;;;;;;;;;5117977;28;20450;-53
2021/08/28 06:48:08;;;;;;;11.27;9.30;;;;;;;;;;5118475;28;20465;-57
2021/08/28 06:50:37;;;;;;;9.57;8.30;;;;;;;;;;5117272;28;20458;-52
2021/08/28 06:53:14;;;;;;;9.03;7.70;;;;;;;;;;5117379;28;20443;-57
2021/08/28 06:55:41;;;;;;;8.17;7.33;;;;;;;;;;5115576;28;20509;-54
2021/08/28 06:58:11;;;;;;;9.30;6.50;;;;;;;;;;5117876;28;20469;-55
2021/08/28 07:00:58;;;;;;;8.20;5.90;;;;;;;;;;5117449;28;20482;-54
2021/08/28 07:03:26;;;;;;;6.23;5.63;;;;;;;;;;5117419;28;20511;-55
2021/08/28 07:05:55;;;;;;;8.47;6.00;;;;;;;;;;5117333;28;20478;-50
2021/08/28 07:08:24;;;;;;;9.70;6.30;;;;;;;;;;5117153;28;20466;-55
2021/08/28 07:10:51;;;;;;;10.20;6.70;;;;;;;;;;5126259;28;20467;-50
2021/08/28 07:13:19;;;;;;;9.70;6.73;;;;;;;;;;5123085;28;20481;-57
2021/08/28 07:15:47;;;;;;;10.73;8.70;;;;;;;;;;5099615;28;20431;-54
2021/08/28 07:18:15;;;;;;;11.60;8.53;;;;;;;;;;5116744;28;20447;-53
2021/08/28 07:20:42;;;;;;;9.70;6.80;;;;;;;;;;5117052;28;20475;-52
2021/08/28 07:23:13;;;;;;;9.93;8.10;;;;;;;;;;5117150;28;20439;-52
2021/08/28 07:25:45;;;;;;;16.43;10.30;;;;;;;;;;5117253;28;20443;-56
2021/08/28 07:28:14;;;;;;;11.17;8.63;;;;;;;;;;5116391;28;20478;-56
2021/08/28 07:30:42;;;;;;;15.30;10.63;;;;;;;;;;5116694;28;20434;-48
2021/08/28 07:33:09;;;;;;;13.23;10.13;;;;;;;;;;5116616;28;20447;-56
2021/08/28 07:35:37;;;;;;;11.03;9.70;;;;;;;;;;5109036;28;20464;-51
2021/08/28 07:38:36;;;;;;;17.03;12.10;;;;;;;;;;5095806;28;20447;-54
2021/08/28 07:41:04;;;;;;;14.63;11.77;;;;;;;;;;5111742;28;20520;-55
2021/08/28 07:43:32;;;;;;;19.67;11.33;;;;;;;;;;5116832;28;20435;-54
2021/08/28 07:46:07;;;;;;;17.57;10.63;;;;;;;;;;5116597;28;20447;-52
2021/08/28 07:48:34;;;;;;;15.73;11.83;;;;;;;;;;5115740;28;20458;-53
2021/08/28 07:51:02;;;;;;;16.87;12.87;;;;;;;;;;5116404;28;20439;-55
2021/08/28 07:53:33;;;;;;;16.70;13.30;;;;;;;;;;5115629;28;20452;-58
2021/08/28 07:56:00;;;;;;;17.57;12.83;;;;;;;;;;5116071;28;20502;-50
2021/08/28 07:58:29;;;;;;;16.60;14.77;;;;;;;;;;5115653;28;20455;-58
2021/08/28 08:01:11;;;;;;;16.10;13.10;;;;;;;;;;5115663;28;20471;-55
2021/08/28 08:03:39;;;;;;;13.50;12.10;;;;;;;;;;5115334;28;20447;-51
2021/08/28 08:06:07;;;;;;;18.13;11.10;;;;;;;;;;5115990;28;20439;-57
2021/08/28 08:09:04;;;;;;;14.60;11.63;;;;;;;;;;5115666;28;20455;-56
2021/08/28 08:11:32;;;;;;;17.00;11.60;;;;;;;;;;5115544;28;20447;-57
2021/08/28 08:14:22;;;;;;;12.03;10.67;;;;;;;;;;5115996;28;20454;-53
2021/08/28 08:16:51;;;;;;;14.03;11.10;;;;;;;;;;5112872;28;20487;-55
2021/08/28 08:19:19;;;;;;;14.80;12.20;;;;;;;;;;5115439;28;20439;-56
2021/08/28 08:21:47;;;;;;;15.33;10.73;;;;;;;;;;5115335;28;20479;-59
2021/08/28 08:24:14;;;;;;;12.33;10.20;;;;;;;;;;5115306;28;20439;-54
2021/08/28 08:26:42;;;;;;;12.60;9.50;;;;;;;;;;5115470;28;20452;-53
2021/08/28 08:29:13;;;;;;;11.00;8.80;;;;;;;;;;5115830;28;20470;-59
2021/08/28 08:34:53;;;;;;;10.00;8.20;;;;;;;;;;5092763;28;20440;-52
2021/08/28 08:37:21;;;;;;;7.60;6.23;;;;;;;;;;5095474;28;20553;-58
2021/08/28 08:42:55;;;;;;;9.03;8.13;;;;;;;;;;5113705;28;20500;-54
2021/08/28 08:45:23;;;;;;;8.93;8.03;;;;;;;;;;5115293;28;20447;-54
2021/08/28 08:47:57;;;;;;;10.20;8.27;;;;;;;;;;5115304;28;20444;-52
2021/08/28 08:50:31;;;;;;;11.10;9.60;;;;;;;;;;5111612;28;20494;-58
2021/08/28 08:55:47;;;;;;;13.17;11.60;;;;;;;;;;5119408;28;20455;-51
2021/08/28 08:58:17;;;;;;;12.50;10.37;;;;;;;;;;5112467;28;20460;-57
2021/08/28 09:00:55;;;;;;;12.00;10.37;;;;;;;;;;5098748;28;20451;-57
2021/08/28 09:03:27;;;;;;;13.60;10.47;;;;;;;;;;5109880;28;20459;-56
2021/08/28 09:06:13;;;;;;;11.50;10.40;;;;;;;;;;5106723;28;20440;-56
2021/08/28 09:08:41;;;;;;;13.80;10.83;;;;;;;;;;5098735;28;20466;-53
2021/08/28 09:11:33;;;;;;;13.13;11.93;;;;;;;;;;5109507;28;20439;-51
2021/08/28 09:14:17;;;;;;;15.03;13.43;;;;;;;;;;5119363;28;20439;-50
2021/08/28 09:17:08;;;;;;;14.47;13.07;;;;;;;;;;5119240;28;20518;-55
2021/08/28 09:19:54;;;;;;;15.70;14.00;;;;;;;;;;5119087;28;20451;-55
2021/08/28 09:22:41;;;;;;;16.77;13.50;;;;;;;;;;5118947;28;20562;-56
2021/08/28 09:25:43;;;;;;;16.30;13.40;;;;;;;;;;5119251;28;20504;-57
2021/08/28 09:28:12;;;;;;;16.07;12.80;;;;;;;;;;5118255;28;20438;-57
2021/08/28 09:31:15;;;;;;;13.83;12.43;;;;;;;;;;5118932;28;20454;-57
2021/08/28 09:36:51;;;;;;;15.17;13.67;;;;;;;;;;5117257;28;20530;-53
2021/08/28 09:39:40;;;;;;;15.30;11.77;;;;;;;;;;5104889;28;20447;-54
2021/08/28 09:42:14;;;;;;;14.67;13.10;;;;;;;;;;5109685;28;20473;-56
2021/08/28 09:44:55;;;;;;;17.30;12.37;;;;;;;;;;5118989;28;20443;-57
2021/08/28 09:48:16;;;;;;;14.50;12.43;;;;;;;;;;5118222;28;20440;-56
2021/08/28 09:50:44;;;;;;;12.63;11.40;;;;;;;;;;5097832;28;20479;-51
2021/08/28 09:53:13;;;;;;;15.47;13.87;;;;;;;;;;5097657;28;20558;-57
2021/08/28 09:55:45;;;;;;;12.73;11.40;;;;;;;;;;5098120;28;20511;-54
2021/08/28 09:58:15;;;;;;;12.17;10.67;;;;;;;;;;5110965;28;20436;-58
2021/08/28 10:01:00;;;;;;;12.73;11.43;;;;;;;;;;5118179;28;20448;-54
2021/08/28 10:03:28;;;;;;;14.63;10.53;;;;;;;;;;5117911;28;20449;-56
2021/08/28 10:06:04;;;;;;;11.03;10.03;;;;;;;;;;5118089;28;20469;-57
2021/08/28 10:17:14;;;;;;;8.70;7.80;;;;;;;;;;5117690;28;20189;-49
2021/08/28 10:19:42;;;;;;;9.17;7.97;;;;;;;;;;5118143;28;20522;-59
2021/08/28 10:22:10;;;;;;;9.57;8.33;;;;;;;;;;5117353;28;20483;-58
2021/08/28 10:24:51;;;;;;;9.67;6.33;;;;;;;;;;5117805;28;20463;-57
2021/08/28 10:27:22;;;;;;;7.50;6.00;;;;;;;;;;5118490;28;20504;-55
2021/08/28 10:30:11;;;;;;;9.00;5.77;;;;;;;;;;5100696;28;20439;-57
2021/08/28 10:32:42;;;;;;;8.23;6.30;;;;;;;;;;5117017;28;20453;-51
2021/08/28 10:35:10;;;;;;;9.10;5.67;;;;;;;;;;5118625;28;20439;-57
2021/08/28 10:37:37;;;;;;;10.13;7.23;;;;;;;;;;5118152;28;20443;-54
2021/08/28 10:40:07;;;;;;;8.03;5.73;;;;;;;;;;5117789;28;20513;-52
2021/08/28 10:42:41;;;;;;;8.33;6.37;;;;;;;;;;5122942;28;20491;-62
2021/08/28 10:45:11;;;;;;;8.13;5.80;;;;;;;;;;5109042;28;20489;-54
2021/08/28 10:47:41;;;;;;;7.90;6.03;;;;;;;;;;5117214;28;20507;-51
2021/08/28 10:50:12;;;;;;;12.60;5.73;;;;;;;;;;5117381;28;20483;-52
2021/08/28 10:52:41;;;;;;;10.47;5.80;;;;;;;;;;5117258;28;20447;-56
2021/08/28 10:55:13;;;;;;;7.97;5.50;;;;;;;;;;5117245;28;20475;-55
2021/08/28 11:00:47;;;;;;;7.13;5.40;;;;;;;;;;5111733;28;20418;-54
2021/08/28 11:03:38;;;;;;;10.10;5.40;;;;;;;;;;5116997;28;20491;-56
2021/08/28 11:09:18;;;;;;;5.80;4.60;;;;;;;;;;5114849;28;20486;-56
2021/08/28 11:11:55;;;;;;;5.43;4.43;;;;;;;;;;5113821;28;20446;-56
2021/08/28 11:14:43;;;;;;;7.00;4.43;;;;;;;;;;5116156;28;20427;-55
2021/08/28 11:17:38;;;;;;;6.90;5.40;;;;;;;;;;5116686;28;20439;-52
2021/08/28 11:20:06;;;;;;;7.60;4.70;;;;;;;;;;5116355;28;20465;-53
2021/08/28 11:22:37;;;;;;;7.60;5.40;;;;;;;;;;5133993;28;20470;-53
2021/08/28 11:25:38;;;;;;;10.30;5.50;;;;;;;;;;5116978;28;20439;-55
2021/08/28 11:28:06;;;;;;;7.90;4.40;;;;;;;;;;5116602;28;20482;-52
2021/08/28 11:30:45;;;;;;;7.60;5.00;;;;;;;;;;5115816;28;20486;-55
2021/08/28 11:33:28;;;;;;;8.37;5.60;;;;;;;;;;5116051;28;20527;-58
2021/08/28 11:35:58;;;;;;;7.30;4.83;;;;;;;;;;5116681;28;20439;-51
2021/08/28 11:38:41;;;;;;;12.33;5.23;;;;;;;;;;5116545;28;20439;-52
2021/08/28 11:41:09;;;;;;;6.83;5.03;;;;;;;;;;5116351;28;20477;-57
2021/08/28 11:43:39;;;;;;;6.60;5.60;;;;;;;;;;5115910;28;20485;-50
2021/08/28 11:46:07;;;;;;;7.93;6.10;;;;;;;;;;5115784;28;20455;-57
2021/08/28 11:48:37;;;;;;;9.73;5.33;;;;;;;;;;5115532;28;20439;-53
2021/08/28 11:54:10;;;;;;;5.63;4.60;;;;;;;;;;5106718;28;20535;-52
2021/08/28 11:56:38;;;;;;;7.50;5.57;;;;;;;;;;5114693;28;20450;-56
2021/08/28 11:59:07;;;;;;;6.70;5.07;;;;;;;;;;5096214;28;20448;-55
2021/08/28 12:01:35;;;;;;;6.10;4.53;;;;;;;;;;5095564;28;20421;-52
2021/08/28 12:04:36;;;;;;;6.70;5.07;;;;;;;;;;5095793;28;20421;-54
2021/08/28 12:07:06;;;;;;;5.70;4.47;;;;;;;;;;5095076;28;20440;-55
2021/08/28 12:09:36;;;;;;;6.10;4.87;;;;;;;;;;5096631;28;20460;-54
2021/08/28 12:12:32;;;;;;;7.73;4.93;;;;;;;;;;5115508;28;20486;-49
2021/08/28 12:15:03;;;;;;;8.03;5.63;;;;;;;;;;5115862;28;20544;-56
2021/08/28 12:17:30;;;;;;;7.13;5.93;;;;;;;;;;5115963;28;20477;-56
2021/08/28 12:20:09;;;;;;;11.07;6.90;;;;;;;;;;5115552;28;20463;-56
2021/08/28 12:22:40;;;;;;;8.00;5.50;;;;;;;;;;5115146;28;20479;-50
2021/08/28 12:25:14;;;;;;;5.13;4.20;;;;;;;;;;5098445;28;20428;-54
2021/08/28 12:27:58;;;;;;;6.53;4.60;;;;;;;;;;5099877;28;20477;-55
2021/08/28 12:33:36;;;;;;;8.03;5.10;;;;;;;;;;5132700;28;20465;-52
2021/08/28 12:36:24;;;;;;;7.80;5.80;;;;;;;;;;5113953;28;20455;-53
2021/08/28 12:39:07;;;;;;;7.00;5.50;;;;;;;;;;5117760;28;20502;-50
2021/08/28 12:41:46;;;;;;;6.77;4.43;;;;;;;;;;5119158;28;20461;-54
2021/08/28 12:44:22;;;;;;;6.53;4.57;;;;;;;;;;5119976;28;20485;-57
2021/08/28 12:46:51;;;;;;;4.80;3.67;;;;;;;;;;5119219;28;20465;-55
2021/08/28 12:49:33;;;;;;;4.90;3.60;;;;;;;;;;5119134;28;20466;-54
2021/08/28 12:52:05;;;;;;;11.00;6.70;;;;;;;;;;5119500;28;20455;-53
2021/08/28 12:54:36;;;;;;;6.80;4.70;;;;;;;;;;5104907;28;20467;-57
2021/08/28 12:57:06;;;;;;;5.80;4.13;;;;;;;;;;5119725;28;20536;-54
2021/08/28 12:59:42;;;;;;;5.10;3.87;;;;;;;;;;5098879;28;20560;-56
2021/08/28 13:02:25;;;;;;;4.60;3.07;;;;;;;;;;5112204;28;20522;-54
2021/08/28 13:05:04;;;;;;;5.07;3.20;;;;;;;;;;5110757;28;20535;-51
2021/08/28 13:07:49;;;;;;;4.50;3.30;;;;;;;;;;5119193;28;20443;-50
2021/08/28 13:10:22;;;;;;;4.30;3.13;;;;;;;;;;5118742;28;20449;-53
2021/08/28 13:12:52;;;;;;;5.40;3.80;;;;;;;;;;5119564;28;20456;-52
2021/08/28 13:15:40;;;;;;;4.93;3.67;;;;;;;;;;5119521;28;20526;-51
2021/08/28 13:18:08;;;;;;;4.70;3.60;;;;;;;;;;5117373;28;20516;-49
2021/08/28 13:20:49;;;;;;;4.80;4.00;;;;;;;;;;5119598;28;20443;-47
2021/08/28 13:26:24;;;;;;;4.90;3.57;;;;;;;;;;5114001;28;20447;-55
2021/08/28 13:29:11;;;;;;;5.53;4.50;;;;;;;;;;5118691;28;20436;-56
2021/08/28 13:31:44;;;;;;;5.33;3.83;;;;;;;;;;5131985;28;20451;-52
2021/08/28 13:34:11;;;;;;;4.77;3.70;;;;;;;;;;5134225;28;20435;-50
2021/08/28 13:37:05;;;;;;;5.40;3.73;;;;;;;;;;5116935;28;20455;-51
2021/08/28 13:39:34;;;;;;;4.57;3.70;;;;;;;;;;5119121;28;20443;-58
2021/08/28 13:42:33;;;;;;;4.53;3.87;;;;;;;;;;5114919;28;20421;-54
2021/08/28 13:45:03;;;;;;;5.00;3.60;;;;;;;;;;5097929;28;20459;-49
2021/08/28 13:47:46;;;;;;;4.73;3.43;;;;;;;;;;5097579;28;20455;-51
2021/08/28 13:50:40;;;;;;;6.10;3.90;;;;;;;;;;5097821;28;20455;-56
2021/08/28 13:53:18;;;;;;;4.70;3.20;;;;;;;;;;5104614;28;20529;-54
2021/08/28 13:55:47;;;;;;;6.20;4.27;;;;;;;;;;5117211;28;20435;-55
2021/08/28 13:58:35;;;;;;;4.10;3.20;;;;;;;;;;5105851;28;20496;-54
2021/08/28 14:01:04;;;;;;;4.00;3.43;;;;;;;;;;5115665;28;20531;-56
2021/08/28 14:03:31;;;;;;;3.90;3.37;;;;;;;;;;5117626;28;20475;-50
2021/08/28 14:09:05;;;;;;;10.50;5.13;;;;;;;;;;5115506;28;20519;-58
2021/08/28 14:11:35;;;;;;;4.90;4.20;;;;;;;;;;5107735;28;20447;-55
2021/08/28 14:14:16;;;;;;;5.80;4.93;;;;;;;;;;5109606;28;20489;-52
2021/08/28 14:16:58;;;;;;;6.47;5.40;;;;;;;;;;5114394;28;20496;-55
2021/08/28 14:20:02;;;;;;;6.57;4.90;;;;;;;;;;5097934;28;20447;-50
2021/08/28 14:22:34;;;;;;;5.37;3.80;;;;;;;;;;5093780;28;20482;-53
2021/08/28 14:25:08;;;;;;;6.73;4.20;;;;;;;;;;5099947;28;20420;-50
2021/08/28 14:27:42;;;;;;;5.03;4.43;;;;;;;;;;5117714;28;20451;-52
2021/08/28 14:30:11;;;;;;;5.93;3.57;;;;;;;;;;5116668;28;20439;-55
2021/08/28 14:35:49;;;;;;;8.77;5.47;;;;;;;;;;5122755;28;20434;-56
2021/08/28 14:38:20;;;;;;;6.13;5.50;;;;;;;;;;5121142;28;20570;-47
2021/08/28 14:40:50;;;;;;;6.00;4.40;;;;;;;;;;5116670;28;20451;-55
2021/08/28 14:46:22;;;;;;;8.13;5.30;;;;;;;;;;5114811;28;20477;-54
2021/08/28 14:49:23;;;;;;;7.67;6.47;;;;;;;;;;5110314;28;20477;-54
2021/08/28 14:52:05;;;;;;;12.10;7.00;;;;;;;;;;5097814;28;20453;-53
2021/08/28 14:54:34;;;;;;;11.07;7.70;;;;;;;;;;5095611;28;20440;-55
2021/08/28 14:57:12;;;;;;;9.03;7.07;;;;;;;;;;5097889;28;20455;-57
2021/08/28 14:59:43;;;;;;;9.23;6.53;;;;;;;;;;5100971;28;20451;-53
2021/08/28 15:02:13;;;;;;;9.70;6.67;;;;;;;;;;5115588;28;20427;-52
2021/08/28 15:05:16;;;;;;;8.87;6.43;;;;;;;;;;5116107;28;20482;-53
2021/08/28 15:07:47;;;;;;;11.87;7.13;;;;;;;;;;5096103;28;20480;-57
2021/08/28 15:10:27;;;;;;;9.90;7.30;;;;;;;;;;5101160;28;20457;-54
2021/08/28 15:13:03;;;;;;;11.63;7.40;;;;;;;;;;5094568;28;20478;-53
2021/08/28 15:15:34;;;;;;;9.97;7.40;;;;;;;;;;5092976;28;20643;-50
2021/08/28 15:18:02;;;;;;;10.33;6.90;;;;;;;;;;5112454;28;20463;-48
2021/08/28 15:20:38;;;;;;;9.23;7.20;;;;;;;;;;5113306;28;20469;-55
2021/08/28 15:23:23;;;;;;;8.67;5.30;;;;;;;;;;5117340;28;20475;-55
2021/08/28 15:26:18;;;;;;;8.10;6.73;;;;;;;;;;5116914;28;20465;-60
2021/08/28 15:28:47;;;;;;;9.13;7.80;;;;;;;;;;5096387;28;20478;-53
2021/08/28 15:31:23;;;;;;;11.10;8.00;;;;;;;;;;5078728;28;20453;-59
2021/08/28 15:33:51;;;;;;;12.50;8.20;;;;;;;;;;5096186;28;20450;-58
2021/08/28 15:36:18;;;;;;;10.37;7.47;;;;;;;;;;5096117;28;20460;-49
2021/08/28 15:38:49;;;;;;;7.57;5.70;;;;;;;;;;5114782;28;20451;-53
2021/08/28 15:41:53;;;;;;;6.63;4.37;;;;;;;;;;5111341;28;20440;-53
2021/08/28 15:44:30;;;;;;;6.93;5.00;;;;;;;;;;5111061;28;20511;-55
2021/08/28 15:46:59;;;;;;;9.67;6.30;;;;;;;;;;5116048;28;20443;-51
2021/08/28 15:50:01;;;;;;;10.00;6.10;;;;;;;;;;5113109;28;20437;-57
2021/08/28 15:52:29;;;;;;;8.37;5.07;;;;;;;;;;5075879;28;20479;-49
2021/08/28 15:55:02;;;;;;;10.10;6.37;;;;;;;;;;5101415;28;20444;-55
2021/08/28 15:57:50;;;;;;;10.10;6.77;;;;;;;;;;5115589;28;20446;-51
2021/08/28 16:00:31;;;;;;;6.67;4.27;;;;;;;;;;5108295;28;20464;-52
2021/08/28 16:03:00;;;;;;;4.10;2.73;;;;;;;;;;5114943;28;20474;-52